createdAt,value
2023-05-01T00:02:04.102Z,9.12
2023-05-01T00:04:33.325Z,9.14
2023-05-01T00:07:00.023Z,9.03
2023-05-01T00:09:30.120Z,8.87
2023-05-01T00:11:56.840Z,8.76
2023-05-01T00:14:23.533Z,8.78
2023-05-01T00:16:50.511Z,8.80
2023-05-01T00:19:18.690Z,8.83
2023-05-01T00:21:46.908Z,8.85
2023-05-01T00:24:14.465Z,8.79
2023-05-01T00:26:41.330Z,8.77
2023-05-01T00:29:08.785Z,8.64
2023-05-01T00:31:36.187Z,8.63
2023-05-01T00:34:02.824Z,8.46
2023-05-01T00:36:29.520Z,8.36
2023-05-01T00:38:56.242Z,8.33
2023-05-01T00:41:23.006Z,8.28
2023-05-01T00:43:49.741Z,8.28
2023-05-01T00:46:16.829Z,8.29
2023-05-01T00:48:43.733Z,8.26
2023-05-01T00:51:11.440Z,8.18
2023-05-01T00:53:41.814Z,8.21
2023-05-01T00:56:09.700Z,8.13
2023-05-01T00:58:37.302Z,8.13
2023-05-01T01:01:05.350Z,8.17
2023-05-01T01:03:32.159Z,8.20
2023-05-01T01:06:08.553Z,8.28
2023-05-01T01:09:28.940Z,8.30
2023-05-01T01:12:00.006Z,8.21
2023-05-01T01:14:50.550Z,8.14
2023-05-01T01:17:30.249Z,8.06
2023-05-01T01:20:17.262Z,8.07
2023-05-01T01:22:49.734Z,8.07
2023-05-01T01:25:39.030Z,8.18
2023-05-01T01:28:29.928Z,8.12
2023-05-01T01:30:59.978Z,8.10
2023-05-01T01:34:02.434Z,8.10
2023-05-01T01:37:00.107Z,8.12
2023-05-01T01:39:46.148Z,8.22
2023-05-01T01:42:19.738Z,8.10
2023-05-01T01:44:56.086Z,8.12
2023-05-01T01:47:28.388Z,8.09
2023-05-01T01:49:56.619Z,8.09
2023-05-01T01:52:24.984Z,8.08
2023-05-01T01:54:58.608Z,8.07
2023-05-01T01:57:27.307Z,7.93
2023-05-01T01:59:55.789Z,7.97
2023-05-01T02:02:23.892Z,8.07
2023-05-01T02:04:52.164Z,7.99
2023-05-01T02:07:20.649Z,8.07
2023-05-01T02:09:50.349Z,8.03
2023-05-01T02:12:18.790Z,8.06
2023-05-01T02:14:47.884Z,7.99
2023-05-01T02:17:16.028Z,7.96
2023-05-01T02:19:44.935Z,7.96
2023-05-01T02:22:12.297Z,7.96
2023-05-01T02:24:40.370Z,7.92
2023-05-01T02:27:21.687Z,8.05
2023-05-01T02:29:49.574Z,8.03
2023-05-01T02:32:16.189Z,8.16
2023-05-01T02:34:43.333Z,8.09
2023-05-01T02:37:11.826Z,8.07
2023-05-01T02:39:40.890Z,8.00
2023-05-01T02:42:09.999Z,7.94
2023-05-01T02:44:49.068Z,7.93
2023-05-01T02:47:20.093Z,7.89
2023-05-01T02:49:48.594Z,7.85
2023-05-01T02:52:17.747Z,7.83
2023-05-01T02:54:46.830Z,7.84
2023-05-01T02:57:14.051Z,7.83
2023-05-01T02:59:41.094Z,7.83
2023-05-01T03:02:07.745Z,7.92
2023-05-01T03:04:34.568Z,7.82
2023-05-01T03:07:01.533Z,7.82
2023-05-01T03:09:28.094Z,7.69
2023-05-01T03:11:54.663Z,7.80
2023-05-01T03:14:21.317Z,7.77
2023-05-01T03:16:47.997Z,7.77
2023-05-01T03:19:14.824Z,7.79
2023-05-01T03:21:41.872Z,7.79
2023-05-01T03:24:08.529Z,7.70
2023-05-01T03:26:35.133Z,7.72
2023-05-01T03:29:01.759Z,7.79
2023-05-01T03:31:29.228Z,7.81
2023-05-01T03:33:58.489Z,7.81
2023-05-01T03:36:25.276Z,7.86
2023-05-01T03:38:53.168Z,7.82
2023-05-01T03:41:39.731Z,7.77
2023-05-01T03:44:26.839Z,7.84
2023-05-01T03:46:53.485Z,7.81
2023-05-01T03:49:24.471Z,7.76
2023-05-01T03:51:51.443Z,7.72
2023-05-01T03:54:18.317Z,7.85
2023-05-01T03:57:07.680Z,7.84
2023-05-01T03:59:35.427Z,7.84
2023-05-01T04:02:02.425Z,7.82
2023-05-01T04:04:32.320Z,7.80
2023-05-01T04:06:59.117Z,7.93
2023-05-01T04:09:26.085Z,7.90
2023-05-01T04:11:52.663Z,7.83
2023-05-01T04:14:19.364Z,7.66
2023-05-01T04:16:46.135Z,7.84
2023-05-01T04:19:13.635Z,7.88
2023-05-01T04:21:42.929Z,7.84
2023-05-01T04:24:09.535Z,7.83
2023-05-01T04:26:36.392Z,7.74
2023-05-01T04:29:03.087Z,7.83
2023-05-01T04:31:29.678Z,7.77
2023-05-01T04:33:57.130Z,7.87
2023-05-01T04:36:23.710Z,7.97
2023-05-01T04:38:50.421Z,7.99
2023-05-01T04:41:17.703Z,7.90
2023-05-01T04:43:45.747Z,8.06
2023-05-01T04:46:16.186Z,8.18
2023-05-01T04:48:42.822Z,8.26
2023-05-01T04:51:09.398Z,8.21
2023-05-01T04:53:36.620Z,8.32
2023-05-01T04:56:05.752Z,8.34
2023-05-01T04:58:32.968Z,8.50
2023-05-01T05:01:05.438Z,8.50
2023-05-01T05:03:32.240Z,8.71
2023-05-01T05:05:59.016Z,8.78
2023-05-01T05:08:26.044Z,8.79
2023-05-01T05:11:02.648Z,8.87
2023-05-01T05:13:33.860Z,9.08
2023-05-01T05:16:03.973Z,9.18
2023-05-01T05:18:31.660Z,9.27
2023-05-01T05:20:58.629Z,9.25
2023-05-01T05:23:25.743Z,9.41
2023-05-01T05:25:52.338Z,9.54
2023-05-01T05:28:19.408Z,9.63
2023-05-01T05:30:47.272Z,9.70
2023-05-01T05:33:16.983Z,9.74
2023-05-01T05:35:43.628Z,9.78
2023-05-01T05:38:10.407Z,9.74
2023-05-01T05:40:39.719Z,9.83
2023-05-01T05:43:06.355Z,9.96
2023-05-01T05:45:34.556Z,9.99
2023-05-01T05:48:01.749Z,10.11
2023-05-01T05:50:30.915Z,10.18
2023-05-01T05:52:58.210Z,10.24
2023-05-01T05:55:25.447Z,10.23
2023-05-01T05:58:03.248Z,10.27
2023-05-01T06:00:30.388Z,10.39
2023-05-01T06:03:00.611Z,10.47
2023-05-01T06:05:29.844Z,10.47
2023-05-01T06:07:56.539Z,10.58
2023-05-01T06:10:23.086Z,10.58
2023-05-01T06:12:53.911Z,10.72
2023-05-01T06:15:25.280Z,10.88
2023-05-01T06:17:54.069Z,10.91
2023-05-01T06:20:20.790Z,10.81
2023-05-01T06:22:49.936Z,10.83
2023-05-01T06:25:23.091Z,11.01
2023-05-01T06:27:50.608Z,11.03
2023-05-01T06:30:21.157Z,11.23
2023-05-01T06:32:54.994Z,11.27
2023-05-01T06:35:21.996Z,11.10
2023-05-01T06:37:49.896Z,11.30
2023-05-01T06:40:16.541Z,11.51
2023-05-01T06:42:43.246Z,11.65
2023-05-01T06:45:09.889Z,11.59
2023-05-01T06:47:36.578Z,11.65
2023-05-01T06:50:05.816Z,11.73
2023-05-01T06:52:33.680Z,11.83
2023-05-01T06:55:00.301Z,11.86
2023-05-01T06:57:27.375Z,11.91
2023-05-01T06:59:54.392Z,12.14
2023-05-01T07:02:21.296Z,12.13
2023-05-01T07:04:48.021Z,12.26
2023-05-01T07:07:14.829Z,12.41
2023-05-01T07:09:41.601Z,12.56
2023-05-01T07:12:08.765Z,12.78
2023-05-01T07:14:35.853Z,12.93
2023-05-01T07:17:03.292Z,12.90
2023-05-01T07:19:29.922Z,12.75
2023-05-01T07:21:56.638Z,13.14
2023-05-01T07:24:23.396Z,13.17
2023-05-01T07:26:50.030Z,13.17
2023-05-01T07:29:16.768Z,13.12
2023-05-01T07:31:44.017Z,13.11
2023-05-01T07:34:13.338Z,13.37
2023-05-01T07:36:43.833Z,13.43
2023-05-01T07:39:11.841Z,13.20
2023-05-01T07:41:39.270Z,13.36
2023-05-01T07:44:07.932Z,13.55
2023-05-01T07:46:38.110Z,13.72
2023-05-01T07:49:14.652Z,13.81
2023-05-01T07:51:48.516Z,13.93
2023-05-01T07:54:22.028Z,14.08
2023-05-01T07:56:54.215Z,14.31
2023-05-01T07:59:24.674Z,14.30
2023-05-01T08:01:54.242Z,14.38
2023-05-01T08:04:23.562Z,14.59
2023-05-01T08:06:54.317Z,14.75
2023-05-01T08:09:34.393Z,14.52
2023-05-01T08:12:03.844Z,14.77
2023-05-01T08:14:30.901Z,14.79
2023-05-01T08:16:58.042Z,14.94
2023-05-01T08:19:25.269Z,15.01
2023-05-01T08:21:54.712Z,15.22
2023-05-01T08:24:24.126Z,15.26
2023-05-01T08:26:52.664Z,15.35
2023-05-01T08:29:19.310Z,15.55
2023-05-01T08:31:45.938Z,15.60
2023-05-01T08:34:12.544Z,15.40
2023-05-01T08:36:39.271Z,15.52
2023-05-01T08:39:05.884Z,15.71
2023-05-01T08:41:32.845Z,15.81
2023-05-01T08:44:01.557Z,15.81
2023-05-01T08:46:38.440Z,16.11
2023-05-01T08:49:06.166Z,16.44
2023-05-01T08:51:34.226Z,16.62
2023-05-01T08:54:03.537Z,16.72
2023-05-01T08:56:31.318Z,16.84
2023-05-01T08:59:01.177Z,16.85
2023-05-01T09:01:29.142Z,16.95
2023-05-01T09:03:58.151Z,17.01
2023-05-01T09:06:28.237Z,17.23
2023-05-01T09:08:55.159Z,17.15
2023-05-01T09:11:23.164Z,17.04
2023-05-01T09:13:50.969Z,17.28
2023-05-01T09:16:18.003Z,17.34
2023-05-01T09:18:45.252Z,17.12
2023-05-01T09:21:12.404Z,17.49
2023-05-01T09:23:40.738Z,17.69
2023-05-01T09:26:08.230Z,17.85
2023-05-01T09:28:45.510Z,17.75
2023-05-01T09:31:25.638Z,17.93
2023-05-01T09:33:54.495Z,18.00
2023-05-01T09:36:22.823Z,18.41
2023-05-01T09:38:49.471Z,18.53
2023-05-01T09:41:16.318Z,18.73
2023-05-01T09:43:49.958Z,18.89
2023-05-01T09:46:17.361Z,19.11
2023-05-01T09:48:57.451Z,18.98
2023-05-01T09:51:27.179Z,18.99
2023-05-01T09:53:58.229Z,19.11
2023-05-01T09:56:29.677Z,19.01
2023-05-01T09:58:59.879Z,19.29
2023-05-01T10:01:44.054Z,19.10
2023-05-01T10:04:10.983Z,19.03
2023-05-01T10:06:39.451Z,19.27
2023-05-01T10:09:10.823Z,19.46
2023-05-01T10:12:00.114Z,19.46
2023-05-01T10:14:28.199Z,19.64
2023-05-01T10:16:56.736Z,19.58
2023-05-01T10:19:23.549Z,19.79
2023-05-01T10:21:50.177Z,19.84
2023-05-01T10:24:17.424Z,20.06
2023-05-01T10:26:44.855Z,20.30
2023-05-01T10:29:12.614Z,20.26
2023-05-01T10:31:41.524Z,20.36
2023-05-01T10:34:10.048Z,20.65
2023-05-01T10:36:43.473Z,20.96
2023-05-01T10:39:36.128Z,20.56
2023-05-01T10:42:16.668Z,20.34
2023-05-01T10:44:44.125Z,20.90
2023-05-01T10:47:30.715Z,20.60
2023-05-01T10:50:15.870Z,20.96
2023-05-01T10:53:14.599Z,21.31
2023-05-01T10:55:45.995Z,21.71
2023-05-01T10:58:14.266Z,21.75
2023-05-01T11:00:41.649Z,21.50
2023-05-01T11:03:23.534Z,21.20
2023-05-01T11:06:05.542Z,21.45
2023-05-01T11:08:38.480Z,21.05
2023-05-01T11:11:21.277Z,21.11
2023-05-01T11:14:01.066Z,21.41
2023-05-01T11:16:47.165Z,21.20
2023-05-01T11:19:23.195Z,21.65
2023-05-01T11:21:54.319Z,21.17
2023-05-01T11:24:21.064Z,21.58
2023-05-01T11:26:48.674Z,21.75
2023-05-01T11:29:15.486Z,22.15
2023-05-01T11:31:42.252Z,21.99
2023-05-01T11:34:09.224Z,22.09
2023-05-01T11:36:49.694Z,21.66
2023-05-01T11:39:19.754Z,22.11
2023-05-01T11:41:47.210Z,22.62
2023-05-01T11:44:18.518Z,22.92
2023-05-01T11:46:45.279Z,22.92
2023-05-01T11:49:12.178Z,23.31
2023-05-01T11:51:39.112Z,22.58
2023-05-01T11:54:07.706Z,22.94
2023-05-01T11:56:36.657Z,23.33
2023-05-01T11:59:16.899Z,23.17
2023-05-01T12:01:45.617Z,22.67
2023-05-01T12:04:13.869Z,22.98
2023-05-01T12:06:45.894Z,23.43
2023-05-01T12:09:17.902Z,22.06
2023-05-01T12:11:46.215Z,22.11
2023-05-01T12:14:15.228Z,22.20
2023-05-01T12:16:42.719Z,22.78
2023-05-01T12:19:12.117Z,23.46
2023-05-01T12:21:38.830Z,24.03
2023-05-01T12:24:10.743Z,24.11
2023-05-01T12:26:37.860Z,23.81
2023-05-01T12:29:06.480Z,23.48
2023-05-01T12:31:33.719Z,22.37
2023-05-01T12:34:03.539Z,22.41
2023-05-01T12:36:32.486Z,21.40
2023-05-01T12:41:56.352Z,22.12
2023-05-01T12:44:29.952Z,22.02
2023-05-01T12:47:01.045Z,21.57
2023-05-01T12:49:29.681Z,21.85
2023-05-01T12:51:58.130Z,22.29
2023-05-01T12:54:30.639Z,22.89
2023-05-01T12:57:08.313Z,23.09
2023-05-01T12:59:37.432Z,23.06
2023-05-01T13:02:06.119Z,22.91
2023-05-01T13:04:34.456Z,22.94
2023-05-01T13:07:01.848Z,22.82
2023-05-01T13:09:32.827Z,22.41
2023-05-01T13:12:07.854Z,22.86
2023-05-01T13:14:39.444Z,22.66
2023-05-01T13:17:10.698Z,22.82
2023-05-01T13:19:37.926Z,23.01
2023-05-01T13:22:07.631Z,23.45
2023-05-01T13:24:42.297Z,23.80
2023-05-01T13:27:09.459Z,23.72
2023-05-01T13:29:36.706Z,24.19
2023-05-01T13:32:10.038Z,24.28
2023-05-01T13:34:37.647Z,23.63
2023-05-01T13:37:04.332Z,24.30
2023-05-01T13:39:30.982Z,24.56
2023-05-01T13:41:57.506Z,24.08
2023-05-01T13:44:24.106Z,24.30
2023-05-01T13:46:50.710Z,24.39
2023-05-01T13:49:22.230Z,24.09
2023-05-01T13:51:48.852Z,23.80
2023-05-01T13:54:16.793Z,23.89
2023-05-01T13:56:43.467Z,24.38
2023-05-01T13:59:10.682Z,24.79
2023-05-01T14:01:46.348Z,24.83
2023-05-01T14:04:18.222Z,24.75
2023-05-01T14:06:53.241Z,25.02
2023-05-01T14:09:22.575Z,24.40
2023-05-01T14:11:50.846Z,24.63
2023-05-01T14:14:18.422Z,24.48
2023-05-01T14:16:49.132Z,24.37
2023-05-01T14:19:18.065Z,23.43
2023-05-01T14:21:45.022Z,22.52
2023-05-01T14:24:11.703Z,22.76
2023-05-01T14:26:42.048Z,22.89
2023-05-01T14:29:22.624Z,22.47
2023-05-01T14:31:49.465Z,22.47
2023-05-01T14:34:20.729Z,22.29
2023-05-01T14:36:47.339Z,21.88
2023-05-01T14:39:23.691Z,21.64
2023-05-01T14:41:50.977Z,21.66
2023-05-01T14:44:20.484Z,21.90
2023-05-01T14:46:52.113Z,22.48
2023-05-01T14:49:21.172Z,22.56
2023-05-01T14:51:48.789Z,22.53
2023-05-01T14:54:16.161Z,22.43
2023-05-01T14:56:43.845Z,22.17
2023-05-01T14:59:10.898Z,22.41
2023-05-01T15:01:37.532Z,22.53
2023-05-01T15:04:06.407Z,22.59
2023-05-01T15:06:36.532Z,22.61
2023-05-01T15:09:04.617Z,22.55
2023-05-01T15:11:31.601Z,22.75
2023-05-01T15:13:58.195Z,22.86
2023-05-01T15:16:24.818Z,22.70
2023-05-01T15:18:51.480Z,22.64
2023-05-01T15:21:18.390Z,22.64
2023-05-01T15:23:46.187Z,22.23
2023-05-01T15:26:12.831Z,22.28
2023-05-01T15:28:39.457Z,22.17
2023-05-01T15:31:07.008Z,22.11
2023-05-01T15:33:33.801Z,22.13
2023-05-01T15:36:00.519Z,21.93
2023-05-01T15:38:28.304Z,21.92
2023-05-01T15:40:55.044Z,22.26
2023-05-01T15:43:23.268Z,22.79
2023-05-01T15:45:51.399Z,22.81
2023-05-01T15:48:18.105Z,22.83
2023-05-01T15:50:46.647Z,22.34
2023-05-01T15:53:16.970Z,22.52
2023-05-01T15:55:43.660Z,22.62
2023-05-01T15:58:10.451Z,22.24
2023-05-01T16:00:39.576Z,21.70
2023-05-01T16:03:07.870Z,21.40
2023-05-01T16:05:37.085Z,21.22
2023-05-01T16:08:05.597Z,21.59
2023-05-01T16:10:37.130Z,21.44
2023-05-01T16:13:07.248Z,21.52
2023-05-01T16:15:34.085Z,21.60
2023-05-01T16:18:03.989Z,21.79
2023-05-01T16:20:38.818Z,22.04
2023-05-01T16:23:05.510Z,21.97
2023-05-01T16:25:32.308Z,21.90
2023-05-01T16:27:59.055Z,21.28
2023-05-01T16:30:27.772Z,21.31
2023-05-01T16:32:54.719Z,20.81
2023-05-01T16:35:27.212Z,21.29
2023-05-01T16:37:54.899Z,21.49
2023-05-01T16:40:22.111Z,21.20
2023-05-01T16:42:51.773Z,20.88
2023-05-01T16:45:18.768Z,20.79
2023-05-01T16:47:45.445Z,20.69
2023-05-01T16:50:12.507Z,20.43
2023-05-01T16:52:41.968Z,19.94
2023-05-01T16:55:09.197Z,19.82
2023-05-01T16:57:36.007Z,19.56
2023-05-01T17:00:03.137Z,19.59
2023-05-01T17:02:30.011Z,19.37
2023-05-01T17:04:57.035Z,19.45
2023-05-01T17:07:23.960Z,19.63
2023-05-01T17:09:50.918Z,19.08
2023-05-01T17:12:17.555Z,18.66
2023-05-01T17:14:44.234Z,18.95
2023-05-01T17:17:10.801Z,18.67
2023-05-01T17:19:41.261Z,18.91
2023-05-01T17:22:07.909Z,18.84
2023-05-01T17:24:35.744Z,18.98
2023-05-01T17:27:03.569Z,18.84
2023-05-01T17:29:30.233Z,18.73
2023-05-01T17:31:56.895Z,18.70
2023-05-01T17:34:23.657Z,18.69
2023-05-01T17:36:50.355Z,18.62
2023-05-01T17:39:16.980Z,18.49
2023-05-01T17:41:55.317Z,18.45
2023-05-01T17:44:33.954Z,18.41
2023-05-01T17:47:36.348Z,18.14
2023-05-01T17:50:28.066Z,17.83
2023-05-01T17:53:18.017Z,17.65
2023-05-01T17:55:50.894Z,17.30
2023-05-01T17:58:38.234Z,17.22
2023-05-01T18:01:05.905Z,17.38
2023-05-01T18:03:32.934Z,17.21
2023-05-01T18:06:01.734Z,16.99
2023-05-01T18:08:28.422Z,16.93
2023-05-01T18:10:55.098Z,16.43
2023-05-01T18:13:27.746Z,16.25
2023-05-01T18:15:57.578Z,16.01
2023-05-01T18:18:24.282Z,15.79
2023-05-01T18:20:50.908Z,15.84
2023-05-01T18:23:18.743Z,15.92
2023-05-01T18:25:46.226Z,15.64
2023-05-01T18:28:13.015Z,15.47
2023-05-01T18:30:39.685Z,15.15
2023-05-01T18:33:06.277Z,15.01
2023-05-01T18:35:33.614Z,14.91
2023-05-01T18:38:00.295Z,15.24
2023-05-01T18:40:27.296Z,15.39
2023-05-01T18:43:01.599Z,14.88
2023-05-01T18:45:48.003Z,14.78
2023-05-01T18:48:16.087Z,14.92
2023-05-01T18:50:45.767Z,14.97
2023-05-01T18:53:16.058Z,14.91
2023-05-01T18:55:42.753Z,14.77
2023-05-01T18:58:09.352Z,14.69
2023-05-01T19:00:35.910Z,14.73
2023-05-01T19:03:02.592Z,14.74
2023-05-01T19:05:29.325Z,14.55
2023-05-01T19:08:00.579Z,14.22
2023-05-01T19:10:27.804Z,13.81
2023-05-01T19:12:54.346Z,13.80
2023-05-01T19:15:20.944Z,13.43
2023-05-01T19:17:47.604Z,13.54
2023-05-01T19:20:15.872Z,13.62
2023-05-01T19:22:42.592Z,13.52
2023-05-01T19:25:09.723Z,13.62
2023-05-01T19:27:36.527Z,13.47
2023-05-01T19:30:03.990Z,13.68
2023-05-01T19:32:30.657Z,13.60
2023-05-01T19:34:57.305Z,13.86
2023-05-01T19:37:24.117Z,13.84
2023-05-01T19:39:50.911Z,13.78
2023-05-01T19:42:17.576Z,13.70
2023-05-01T19:44:44.144Z,13.86
2023-05-01T19:47:10.816Z,14.05
2023-05-01T19:49:38.746Z,14.03
2023-05-01T19:52:06.301Z,14.15
2023-05-01T19:54:33.020Z,14.02
2023-05-01T19:56:59.716Z,13.68
2023-05-01T19:59:26.806Z,13.69
2023-05-01T20:01:55.076Z,13.94
2023-05-01T20:04:24.182Z,13.94
2023-05-01T20:06:51.754Z,14.11
2023-05-01T20:09:18.725Z,14.13
2023-05-01T20:11:45.314Z,14.27
2023-05-01T20:14:11.991Z,14.23
2023-05-01T20:16:38.693Z,14.14
2023-05-01T20:19:06.439Z,14.21
2023-05-01T20:21:33.129Z,14.16
2023-05-01T20:23:59.763Z,14.12
2023-05-01T20:26:26.638Z,14.06
2023-05-01T20:28:53.647Z,14.03
2023-05-01T20:31:20.290Z,14.03
2023-05-01T20:33:46.993Z,14.06
2023-05-01T20:36:14.673Z,13.73
2023-05-01T20:38:43.369Z,13.70
2023-05-01T20:41:10.144Z,13.52
2023-05-01T20:43:36.932Z,13.49
2023-05-01T20:46:03.572Z,13.35
2023-05-01T20:48:30.312Z,13.51
2023-05-01T20:50:56.867Z,13.52
2023-05-01T20:53:23.612Z,13.49
2023-05-01T20:55:50.267Z,13.47
2023-05-01T20:58:16.875Z,13.40
2023-05-01T21:00:43.479Z,13.27
2023-05-01T21:03:10.428Z,13.05
2023-05-01T21:05:37.079Z,13.10
2023-05-01T21:08:03.704Z,13.17
2023-05-01T21:10:30.270Z,13.33
2023-05-01T21:12:57.798Z,13.36
2023-05-01T21:15:24.671Z,13.26
2023-05-01T21:17:51.306Z,13.30
2023-05-01T21:20:30.265Z,13.33
2023-05-01T21:22:56.879Z,13.40
2023-05-01T21:25:26.961Z,13.30
2023-05-01T21:27:54.171Z,13.35
2023-05-01T21:30:29.772Z,13.50
2023-05-01T21:32:57.457Z,13.58
2023-05-01T21:35:25.820Z,13.57
2023-05-01T21:37:52.476Z,13.57
2023-05-01T21:40:19.306Z,13.45
2023-05-01T21:42:46.541Z,13.30
2023-05-01T21:45:14.979Z,13.41
2023-05-01T21:47:43.994Z,13.53
2023-05-01T21:50:15.552Z,13.46
2023-05-01T21:52:43.983Z,13.28
2023-05-01T21:55:17.075Z,13.16
2023-05-01T21:57:43.755Z,13.33
2023-05-01T22:00:11.058Z,13.44
2023-05-01T22:02:43.149Z,13.47
2023-05-01T22:05:11.647Z,13.52
2023-05-01T22:07:40.074Z,13.43
2023-05-01T22:10:14.385Z,13.30
2023-05-01T22:12:41.076Z,13.22
2023-05-01T22:15:12.157Z,13.13
2023-05-01T22:17:39.836Z,13.31
2023-05-01T22:20:07.431Z,13.08
2023-05-01T22:22:34.625Z,13.24
2023-05-01T22:25:01.623Z,13.42
2023-05-01T22:27:28.599Z,13.45
2023-05-01T22:29:55.285Z,13.40
2023-05-01T22:32:21.988Z,13.46
2023-05-01T22:34:48.642Z,13.54
2023-05-01T22:37:15.758Z,13.46
2023-05-01T22:39:42.933Z,13.48
2023-05-01T22:42:09.744Z,13.46
2023-05-01T22:44:36.605Z,13.51
2023-05-01T22:47:03.454Z,13.45
2023-05-01T22:49:31.988Z,13.43
2023-05-01T22:51:58.691Z,13.44
2023-05-01T22:54:25.415Z,13.43
2023-05-01T22:56:52.386Z,13.26
2023-05-01T22:59:19.794Z,13.29
2023-05-01T23:01:46.489Z,13.09
2023-05-01T23:04:13.958Z,13.30
2023-05-01T23:06:41.070Z,13.35
2023-05-01T23:09:08.438Z,13.32
2023-05-01T23:11:35.223Z,13.19
2023-05-01T23:14:02.016Z,13.21
2023-05-01T23:16:36.501Z,13.36
2023-05-01T23:19:03.638Z,13.41
2023-05-01T23:21:30.933Z,13.42
2023-05-01T23:23:57.512Z,13.38
2023-05-01T23:26:25.971Z,12.95
2023-05-01T23:28:53.224Z,13.12
2023-05-01T23:31:29.235Z,13.01
2023-05-01T23:33:55.972Z,13.03
2023-05-01T23:36:22.735Z,13.09
2023-05-01T23:38:49.573Z,13.04
2023-05-01T23:41:16.393Z,13.05
2023-05-01T23:43:46.414Z,12.95
2023-05-01T23:46:13.120Z,12.67
2023-05-01T23:48:40.856Z,12.87
2023-05-01T23:51:07.526Z,12.67
2023-05-01T23:53:34.100Z,12.91
2023-05-01T23:56:00.797Z,13.02
2023-05-01T23:58:27.339Z,13.06
